createdAt,value
2019-06-20T00:00:13.421Z,92.29
2019-06-20T00:01:12.773Z,92.60
2019-06-20T00:02:12.749Z,92.69
2019-06-20T00:03:12.737Z,92.69
2019-06-20T00:04:12.729Z,92.90
2019-06-20T00:05:12.718Z,92.69
2019-06-20T00:06:12.719Z,92.90
2019-06-20T00:07:12.688Z,92.80
2019-06-20T00:08:12.679Z,93.00
2019-06-20T00:09:12.697Z,93.00
2019-06-20T00:10:12.671Z,92.90
2019-06-20T00:11:12.670Z,92.90
2019-06-20T00:12:12.637Z,92.90
2019-06-20T00:13:12.630Z,93.10
2019-06-20T00:14:12.661Z,93.40
2019-06-20T00:15:12.629Z,93.40
2019-06-20T00:16:12.606Z,93.30
2019-06-20T00:17:12.586Z,92.80
2019-06-20T00:18:12.601Z,92.69
2019-06-20T00:19:12.564Z,92.90
2019-06-20T00:20:12.564Z,92.90
2019-06-20T00:21:12.544Z,92.90
2019-06-20T00:22:12.534Z,92.69
2019-06-20T00:23:12.523Z,92.49
2019-06-20T00:24:12.517Z,92.90
2019-06-20T00:25:12.522Z,93.00
2019-06-20T00:26:12.492Z,93.00
2019-06-20T00:27:12.571Z,92.69
2019-06-20T00:28:12.462Z,92.60
2019-06-20T00:29:12.478Z,92.84
2019-06-20T00:30:12.451Z,93.15
2019-06-20T00:31:12.440Z,93.24
2019-06-20T00:32:12.431Z,93.04
2019-06-20T00:33:12.443Z,92.94
2019-06-20T00:34:12.425Z,93.15
2019-06-20T00:35:12.400Z,93.15
2019-06-20T00:36:12.398Z,93.35
2019-06-20T00:37:12.369Z,93.24
2019-06-20T00:38:12.378Z,93.15
2019-06-20T00:39:12.348Z,93.15
2019-06-20T00:40:12.337Z,93.24
2019-06-20T00:41:12.327Z,93.24
2019-06-20T00:42:12.327Z,93.35
2019-06-20T00:43:17.525Z,93.55
2019-06-20T00:44:13.321Z,93.24
2019-06-20T00:45:12.290Z,93.35
2019-06-20T00:46:12.305Z,93.44
2019-06-20T00:47:12.267Z,93.55
2019-06-20T00:48:12.256Z,93.35
2019-06-20T00:49:12.244Z,93.35
2019-06-20T00:50:12.304Z,93.44
2019-06-20T00:51:12.265Z,93.65
2019-06-20T00:52:12.233Z,93.44
2019-06-20T00:53:12.211Z,93.15
2019-06-20T00:54:12.214Z,93.24
2019-06-20T00:55:12.216Z,93.35
2019-06-20T00:56:12.177Z,93.24
2019-06-20T00:57:12.162Z,93.35
2019-06-20T00:58:12.152Z,93.55
2019-06-20T00:59:12.160Z,93.65
2019-06-20T01:00:12.131Z,93.44
2019-06-20T01:01:12.130Z,93.24
2019-06-20T01:02:12.110Z,93.55
2019-06-20T01:03:12.092Z,93.65
2019-06-20T01:04:12.101Z,93.85
2019-06-20T01:05:12.083Z,94.06
2019-06-20T01:06:12.059Z,94.15
2019-06-20T01:07:12.049Z,94.36
2019-06-20T01:08:12.047Z,94.26
2019-06-20T01:09:12.052Z,93.95
2019-06-20T01:10:12.040Z,93.75
2019-06-20T01:11:12.007Z,93.65
2019-06-20T01:12:11.997Z,93.85
2019-06-20T01:13:11.996Z,93.95
2019-06-20T01:14:11.997Z,94.26
2019-06-20T01:15:11.975Z,94.36
2019-06-20T01:16:11.966Z,94.56
2019-06-20T01:17:11.979Z,94.46
2019-06-20T01:18:11.944Z,94.06
2019-06-20T01:19:11.924Z,94.15
2019-06-20T01:20:11.914Z,93.95
2019-06-20T01:21:11.914Z,94.26
2019-06-20T01:22:11.921Z,94.36
2019-06-20T01:23:11.883Z,94.46
2019-06-20T01:24:11.873Z,94.36
2019-06-20T01:25:11.869Z,93.95
2019-06-20T01:26:11.852Z,93.85
2019-06-20T01:27:11.862Z,93.85
2019-06-20T01:28:11.831Z,93.85
2019-06-20T01:29:11.841Z,93.79
2019-06-20T01:30:11.811Z,93.79
2019-06-20T01:31:11.801Z,94.00
2019-06-20T01:32:11.790Z,94.00
2019-06-20T01:33:11.801Z,94.10
2019-06-20T01:34:11.770Z,94.00
2019-06-20T01:35:11.759Z,94.10
2019-06-20T01:36:11.766Z,94.00
2019-06-20T01:37:11.739Z,94.10
2019-06-20T01:38:11.741Z,94.10
2019-06-20T01:39:11.727Z,93.79
2019-06-20T01:40:11.729Z,93.49
2019-06-20T01:41:11.697Z,93.39
2019-06-20T01:42:11.686Z,93.49
2019-06-20T01:43:11.687Z,93.49
2019-06-20T01:44:11.666Z,93.70
2019-06-20T01:45:11.667Z,93.90
2019-06-20T01:46:11.645Z,94.00
2019-06-20T01:47:11.633Z,93.90
2019-06-20T01:48:11.623Z,94.00
2019-06-20T01:49:11.605Z,94.00
2019-06-20T01:50:11.606Z,94.10
2019-06-20T01:51:11.593Z,94.10
2019-06-20T01:52:11.585Z,94.00
2019-06-20T01:53:11.572Z,94.00
2019-06-20T01:54:11.563Z,94.00
2019-06-20T01:55:11.542Z,94.10
2019-06-20T01:56:11.535Z,94.20
2019-06-20T01:57:11.534Z,94.30
2019-06-20T01:58:11.514Z,94.30
2019-06-20T01:59:11.522Z,94.40
2019-06-20T02:00:11.503Z,94.40
2019-06-20T02:01:11.480Z,94.40
2019-06-20T02:02:11.470Z,94.30
2019-06-20T02:03:11.477Z,94.40
2019-06-20T02:04:11.476Z,94.40
2019-06-20T02:05:11.440Z,94.40
2019-06-20T02:06:11.438Z,94.50
2019-06-20T02:07:11.408Z,94.50
2019-06-20T02:08:11.561Z,94.50
2019-06-20T02:09:11.409Z,94.30
2019-06-20T02:10:11.388Z,94.50
2019-06-20T02:11:11.412Z,94.50
2019-06-20T02:12:11.412Z,94.50
2019-06-20T02:13:11.370Z,94.40
2019-06-20T02:14:11.372Z,94.40
2019-06-20T02:15:11.356Z,94.50
2019-06-20T02:16:11.361Z,94.40
2019-06-20T02:17:11.330Z,94.50
2019-06-20T02:18:11.317Z,94.60
2019-06-20T02:19:11.298Z,94.71
2019-06-20T02:20:11.283Z,94.40
2019-06-20T02:21:11.276Z,94.50
2019-06-20T02:22:11.266Z,94.71
2019-06-20T02:23:11.604Z,94.60
2019-06-20T02:24:11.234Z,94.71
2019-06-20T02:25:11.237Z,94.81
2019-06-20T02:26:11.290Z,94.60
2019-06-20T02:27:11.205Z,94.50
2019-06-20T02:28:11.191Z,94.40
2019-06-20T02:29:11.202Z,94.60
2019-06-20T02:30:11.221Z,94.56
2019-06-20T02:31:11.172Z,94.76
2019-06-20T02:32:11.151Z,94.66
2019-06-20T02:33:11.141Z,94.66
2019-06-20T02:34:11.135Z,94.66
2019-06-20T02:35:11.642Z,94.66
2019-06-20T02:36:11.122Z,94.66
2019-06-20T02:37:11.146Z,94.46
2019-06-20T02:38:11.090Z,94.46
2019-06-20T02:39:11.078Z,94.66
2019-06-20T02:40:11.073Z,94.36
2019-06-20T02:41:11.081Z,94.36
2019-06-20T02:42:11.046Z,94.36
2019-06-20T02:43:11.045Z,94.26
2019-06-20T02:44:28.566Z,94.36
2019-06-20T02:45:12.006Z,94.26
2019-06-20T02:46:11.032Z,94.26
2019-06-20T02:47:11.027Z,94.26
2019-06-20T02:48:10.976Z,94.15
2019-06-20T02:49:10.967Z,93.95
2019-06-20T02:50:10.955Z,93.95
2019-06-20T02:51:10.953Z,94.06
2019-06-20T02:52:10.946Z,94.06
2019-06-20T02:53:10.931Z,94.06
2019-06-20T02:54:10.935Z,94.06
2019-06-20T02:55:10.909Z,94.26
2019-06-20T02:56:10.893Z,94.26
2019-06-20T02:57:10.880Z,94.36
2019-06-20T02:58:10.903Z,94.36
2019-06-20T02:59:10.863Z,94.26
2019-06-20T03:00:10.850Z,94.26
2019-06-20T03:01:10.840Z,94.15
2019-06-20T03:02:10.833Z,94.26
2019-06-20T03:03:10.859Z,94.26
2019-06-20T03:04:10.808Z,94.15
2019-06-20T03:05:10.806Z,94.26
2019-06-20T03:06:10.789Z,94.36
2019-06-20T03:07:10.784Z,94.15
2019-06-20T03:08:10.778Z,94.26
2019-06-20T03:09:10.758Z,94.26
2019-06-20T03:10:10.749Z,94.26
2019-06-20T03:11:10.728Z,94.26
2019-06-20T03:12:10.723Z,94.26
2019-06-20T03:13:10.705Z,94.26
2019-06-20T03:14:10.715Z,94.26
2019-06-20T03:15:10.688Z,94.26
2019-06-20T03:16:10.675Z,94.26
2019-06-20T03:17:10.687Z,94.36
2019-06-20T03:18:10.654Z,94.15
2019-06-20T03:19:10.664Z,94.15
2019-06-20T03:20:10.730Z,94.26
2019-06-20T03:21:10.636Z,94.26
2019-06-20T03:22:10.617Z,94.15
2019-06-20T03:23:10.604Z,94.26
2019-06-20T03:24:10.593Z,94.26
2019-06-20T03:25:10.592Z,94.26
2019-06-20T03:26:10.580Z,94.26
2019-06-20T03:27:10.564Z,94.26
2019-06-20T03:28:10.563Z,94.15
2019-06-20T03:29:10.556Z,94.26
2019-06-20T03:30:10.553Z,94.36
2019-06-20T03:31:10.523Z,94.36
2019-06-20T03:32:10.512Z,94.46
2019-06-20T03:33:10.510Z,94.46
2019-06-20T03:34:10.514Z,94.46
2019-06-20T03:35:10.471Z,94.56
2019-06-20T03:36:10.459Z,94.66
2019-06-20T03:37:10.451Z,94.66
2019-06-20T03:38:10.442Z,94.76
2019-06-20T03:39:10.455Z,94.76
2019-06-20T03:40:10.418Z,94.76
2019-06-20T03:41:10.406Z,94.76
2019-06-20T03:42:10.400Z,95.07
2019-06-20T03:43:10.387Z,95.17
2019-06-20T03:44:10.386Z,95.37
2019-06-20T03:45:10.374Z,95.37
2019-06-20T03:46:10.361Z,95.47
2019-06-20T03:47:10.345Z,95.67
2019-06-20T03:48:10.334Z,95.78
2019-06-20T03:49:10.325Z,95.98
2019-06-20T03:50:10.324Z,96.08
2019-06-20T03:51:10.305Z,96.18
2019-06-20T03:52:10.296Z,96.08
2019-06-20T03:53:10.273Z,96.18
2019-06-20T03:54:10.273Z,96.28
2019-06-20T03:55:10.252Z,96.38
2019-06-20T03:56:10.259Z,96.38
2019-06-20T03:57:10.243Z,96.38
2019-06-20T03:58:10.228Z,96.38
2019-06-20T03:59:10.221Z,96.38
2019-06-20T04:00:10.210Z,96.48
2019-06-20T04:01:10.232Z,96.58
2019-06-20T04:02:10.183Z,96.58
2019-06-20T04:03:10.176Z,96.48
2019-06-20T04:04:10.148Z,96.38
2019-06-20T04:05:10.147Z,96.48
2019-06-20T04:06:10.145Z,96.48
2019-06-20T04:07:10.140Z,96.58
2019-06-20T04:08:10.969Z,96.58
2019-06-20T04:09:10.097Z,96.58
2019-06-20T04:10:10.110Z,96.58
2019-06-20T04:11:10.124Z,96.58
2019-06-20T04:12:10.102Z,96.69
2019-06-20T04:13:10.085Z,96.48
2019-06-20T04:14:10.090Z,96.48
2019-06-20T04:15:19.057Z,96.48
2019-06-20T04:16:11.043Z,96.48
2019-06-20T04:17:10.022Z,96.48
2019-06-20T04:18:10.036Z,96.58
2019-06-20T04:19:10.002Z,96.54
2019-06-20T04:20:09.993Z,96.64
2019-06-20T04:21:09.991Z,96.74
2019-06-20T04:22:09.963Z,96.74
2019-06-20T04:23:09.951Z,96.64
2019-06-20T04:24:09.946Z,96.64
2019-06-20T04:25:09.941Z,96.54
2019-06-20T04:26:09.921Z,96.54
2019-06-20T04:27:09.911Z,96.54
2019-06-20T04:28:09.902Z,96.54
2019-06-20T04:29:09.890Z,96.64
2019-06-20T04:30:09.893Z,96.74
2019-06-20T04:31:09.861Z,96.64
2019-06-20T04:32:09.861Z,96.64
2019-06-20T04:33:09.852Z,96.54
2019-06-20T04:34:10.789Z,96.54
2019-06-20T04:35:09.818Z,96.64
2019-06-20T04:36:09.818Z,96.74
2019-06-20T04:37:09.817Z,96.84
2019-06-20T04:38:09.787Z,96.94
2019-06-20T04:39:18.636Z,97.05
2019-06-20T04:40:10.782Z,97.05
2019-06-20T04:41:09.762Z,96.94
2019-06-20T04:42:09.752Z,96.94
2019-06-20T04:43:09.725Z,96.94
2019-06-20T04:44:09.728Z,96.94
2019-06-20T04:45:09.744Z,97.05
2019-06-20T04:46:09.703Z,97.05
2019-06-20T04:47:09.687Z,97.05
2019-06-20T04:48:09.676Z,97.05
2019-06-20T04:49:09.676Z,97.05
2019-06-20T04:50:09.684Z,97.05
2019-06-20T04:51:09.643Z,96.94
2019-06-20T04:52:09.634Z,96.84
2019-06-20T04:53:09.641Z,96.80
2019-06-20T04:54:09.614Z,96.69
2019-06-20T04:55:09.612Z,96.59
2019-06-20T04:56:09.602Z,96.39
2019-06-20T04:57:09.592Z,96.09
2019-06-20T04:58:09.571Z,95.89
2019-06-20T04:59:09.568Z,95.89
2019-06-20T05:00:09.619Z,95.98
2019-06-20T05:01:09.540Z,95.98
2019-06-20T05:02:09.529Z,95.89
2019-06-20T05:03:09.529Z,95.89
2019-06-20T05:04:09.546Z,95.98
2019-06-20T05:05:09.498Z,95.89
2019-06-20T05:06:09.488Z,95.84
2019-06-20T05:07:09.467Z,95.89
2019-06-20T05:08:09.489Z,95.68
2019-06-20T05:09:09.462Z,95.58
2019-06-20T05:10:09.436Z,95.48
2019-06-20T05:11:09.428Z,95.48
2019-06-20T05:12:09.431Z,95.43
2019-06-20T05:13:09.426Z,95.38
2019-06-20T05:14:09.407Z,95.43
2019-06-20T05:15:09.384Z,95.43
2019-06-20T05:16:09.382Z,95.23
2019-06-20T05:17:09.373Z,95.07
2019-06-20T05:18:09.416Z,94.93
2019-06-20T05:19:09.364Z,95.14
2019-06-20T05:20:09.333Z,95.23
2019-06-20T05:21:09.331Z,95.23
2019-06-20T05:22:09.312Z,95.03
2019-06-20T05:23:09.305Z,94.93
2019-06-20T05:24:09.303Z,94.83
2019-06-20T05:25:09.281Z,94.73
2019-06-20T05:26:09.278Z,94.83
2019-06-20T05:27:09.262Z,94.73
2019-06-20T05:28:09.250Z,94.53
2019-06-20T05:29:09.256Z,94.43
2019-06-20T05:30:09.220Z,94.53
2019-06-20T05:31:09.219Z,94.63
2019-06-20T05:32:09.263Z,94.73
2019-06-20T05:33:09.199Z,94.73
2019-06-20T05:34:09.179Z,94.73
2019-06-20T05:35:09.169Z,94.83
2019-06-20T05:36:09.158Z,94.83
2019-06-20T05:37:09.168Z,94.53
2019-06-20T05:38:09.146Z,94.32
2019-06-20T05:39:09.126Z,94.23
2019-06-20T05:40:09.125Z,94.23
2019-06-20T05:41:09.110Z,93.82
2019-06-20T05:42:09.114Z,93.92
2019-06-20T05:44:18.015Z,93.77
2019-06-20T05:45:18.039Z,93.48
2019-06-20T05:46:17.983Z,93.48
2019-06-20T05:47:18.018Z,93.37
2019-06-20T05:48:17.999Z,93.37
2019-06-20T05:49:19.036Z,92.57
2019-06-20T05:50:17.959Z,92.26
2019-06-20T05:51:17.933Z,91.91
2019-06-20T05:52:17.922Z,91.61
2019-06-20T05:53:17.913Z,91.37
2019-06-20T05:54:17.902Z,91.77
2019-06-20T05:55:17.891Z,91.82
2019-06-20T05:56:17.890Z,91.82
2019-06-20T05:57:17.870Z,92.12
2019-06-20T05:58:17.862Z,92.32
2019-06-20T05:59:17.851Z,92.22
2019-06-20T06:00:18.545Z,92.12
2019-06-20T06:01:17.839Z,91.71
2019-06-20T06:02:17.817Z,91.51
2019-06-20T06:03:17.830Z,91.61
2019-06-20T06:04:17.799Z,91.17
2019-06-20T06:05:17.809Z,90.66
2019-06-20T06:06:17.780Z,90.66
2019-06-20T06:07:17.769Z,90.66
2019-06-20T06:08:17.757Z,90.26
2019-06-20T06:09:17.777Z,89.86
2019-06-20T06:10:17.772Z,89.35
2019-06-20T06:11:17.736Z,88.95
2019-06-20T06:12:17.706Z,88.95
2019-06-20T06:13:17.705Z,88.85
2019-06-20T06:14:17.685Z,88.65
2019-06-20T06:15:17.684Z,88.65
2019-06-20T06:16:26.137Z,88.65
2019-06-20T06:17:18.655Z,88.75
2019-06-20T06:18:17.642Z,88.40
2019-06-20T06:19:17.634Z,88.50
2019-06-20T06:20:17.633Z,88.00
2019-06-20T06:21:17.639Z,87.60
2019-06-20T06:22:17.612Z,88.00
2019-06-20T06:23:17.611Z,87.65
2019-06-20T06:24:17.593Z,87.41
2019-06-20T06:25:17.578Z,86.66
2019-06-20T06:26:17.621Z,84.81
2019-06-20T06:27:17.571Z,84.71
2019-06-20T06:28:17.540Z,84.45
2019-06-20T06:29:17.529Z,85.00
2019-06-20T06:30:17.513Z,84.59
2019-06-20T06:31:17.534Z,85.10
2019-06-20T06:32:20.057Z,85.60
2019-06-20T06:33:17.481Z,86.30
2019-06-20T06:34:17.503Z,86.35
2019-06-20T06:35:17.459Z,86.35
2019-06-20T06:36:17.449Z,86.44
2019-06-20T06:37:17.460Z,86.38
2019-06-20T06:38:22.210Z,86.69
2019-06-20T06:39:17.418Z,87.09
2019-06-20T06:40:17.407Z,87.19
2019-06-20T06:41:17.397Z,87.19
2019-06-20T06:42:17.386Z,87.60
2019-06-20T06:43:17.396Z,87.60
2019-06-20T06:44:17.365Z,87.19
2019-06-20T06:45:17.363Z,87.40
2019-06-20T06:46:17.414Z,87.49
2019-06-20T06:47:17.379Z,86.79
2019-06-20T06:48:17.334Z,87.19
2019-06-20T06:49:17.325Z,87.60
2019-06-20T06:50:17.297Z,88.14
2019-06-20T06:51:17.310Z,88.34
2019-06-20T06:52:17.273Z,87.84
2019-06-20T06:53:17.282Z,88.14
2019-06-20T06:54:17.272Z,88.24
2019-06-20T06:55:17.273Z,88.04
2019-06-20T06:56:17.251Z,87.94
2019-06-20T06:57:17.222Z,88.48
2019-06-20T06:58:17.212Z,88.89
2019-06-20T06:59:17.211Z,89.39
2019-06-20T07:00:17.199Z,89.59
2019-06-20T07:01:17.220Z,89.79
2019-06-20T07:02:17.171Z,89.90
2019-06-20T07:03:17.160Z,90.30
2019-06-20T07:04:17.159Z,90.61
2019-06-20T07:05:17.178Z,90.95
2019-06-20T07:06:17.159Z,90.85
2019-06-20T07:07:17.137Z,91.15
2019-06-20T07:08:17.098Z,91.25
2019-06-20T07:09:17.112Z,90.85
2019-06-20T07:10:17.134Z,90.95
2019-06-20T07:11:17.076Z,90.65
2019-06-20T07:12:17.066Z,91.15
2019-06-20T07:13:17.056Z,91.35
2019-06-20T07:14:17.046Z,91.76
2019-06-20T07:15:17.066Z,92.26
2019-06-20T07:16:17.026Z,92.26
2019-06-20T07:17:17.016Z,92.50
2019-06-20T07:18:17.007Z,92.66
2019-06-20T07:19:16.984Z,92.86
2019-06-20T07:20:16.992Z,92.97
2019-06-20T07:21:16.970Z,92.86
2019-06-20T07:22:16.981Z,92.57
2019-06-20T07:23:17.036Z,92.22
2019-06-20T07:24:17.802Z,91.91
2019-06-20T07:25:16.933Z,91.31
2019-06-20T07:26:16.923Z,91.06
2019-06-20T07:27:16.964Z,91.06
2019-06-20T07:28:16.885Z,91.06
2019-06-20T07:29:16.936Z,90.92
2019-06-20T07:30:16.883Z,90.52
2019-06-20T07:31:16.859Z,90.52
2019-06-20T07:32:16.946Z,90.52
2019-06-20T07:33:16.830Z,90.82
2019-06-20T07:34:16.856Z,90.82
2019-06-20T07:35:16.822Z,90.72
2019-06-20T07:36:16.800Z,91.06
2019-06-20T07:37:16.792Z,91.27
2019-06-20T07:38:16.788Z,91.47
2019-06-20T07:39:16.798Z,91.37
2019-06-20T07:40:16.758Z,91.83
2019-06-20T07:41:16.747Z,91.87
2019-06-20T07:42:16.737Z,91.87
2019-06-20T07:43:16.756Z,91.77
2019-06-20T07:44:16.727Z,91.67
2019-06-20T07:45:16.711Z,91.87
2019-06-20T07:46:16.742Z,91.57
2019-06-20T07:47:18.107Z,91.77
2019-06-20T07:48:16.685Z,91.17
2019-06-20T07:49:16.680Z,90.46
2019-06-20T07:50:16.678Z,90.06
2019-06-20T07:51:16.665Z,90.26
2019-06-20T07:52:16.634Z,90.26
2019-06-20T07:53:16.648Z,89.55
2019-06-20T07:54:16.624Z,89.65
2019-06-20T07:55:16.607Z,89.55
2019-06-20T07:56:16.614Z,89.05
2019-06-20T07:57:16.574Z,88.75
2019-06-20T07:58:16.572Z,87.70
2019-06-20T07:59:16.582Z,87.60
2019-06-20T08:00:16.561Z,87.29
2019-06-20T08:01:16.559Z,86.65
2019-06-20T08:02:16.555Z,85.44
2019-06-20T08:03:16.525Z,85.64
2019-06-20T08:04:16.515Z,84.39
2019-06-20T08:05:16.499Z,83.54
2019-06-20T08:06:16.480Z,82.46
2019-06-20T08:07:16.484Z,82.32
2019-06-20T08:08:16.460Z,81.52
2019-06-20T08:09:16.541Z,81.82
2019-06-20T08:10:16.448Z,81.04
2019-06-20T08:11:16.490Z,78.92
2019-06-20T08:12:16.428Z,78.15
2019-06-20T08:13:16.407Z,77.35
2019-06-20T08:14:16.400Z,78.45
2019-06-20T08:15:17.140Z,78.35
2019-06-20T08:16:16.406Z,78.05
2019-06-20T08:17:16.370Z,77.99
2019-06-20T08:18:16.356Z,78.63
2019-06-20T08:19:16.383Z,78.63
2019-06-20T08:20:16.336Z,77.86
2019-06-20T08:21:16.325Z,78.86
2019-06-20T08:22:16.305Z,79.10
2019-06-20T08:23:16.309Z,79.14
2019-06-20T08:24:16.285Z,80.05
2019-06-20T08:25:16.279Z,80.85
2019-06-20T08:26:16.295Z,80.19
2019-06-20T08:27:16.252Z,80.08
2019-06-20T08:28:16.258Z,80.79
2019-06-20T08:29:21.152Z,80.79
2019-06-20T08:30:17.222Z,79.99
2019-06-20T08:31:16.214Z,80.65
2019-06-20T08:32:16.214Z,80.35
2019-06-20T08:33:16.214Z,79.85
2019-06-20T08:34:16.183Z,79.58
2019-06-20T08:35:16.220Z,79.88
2019-06-20T08:36:16.161Z,80.29
2019-06-20T08:37:16.171Z,80.69
2019-06-20T08:38:16.139Z,79.68
2019-06-20T08:39:16.120Z,80.29
2019-06-20T08:40:16.110Z,79.68
2019-06-20T08:41:16.135Z,79.79
2019-06-20T08:42:16.100Z,79.88
2019-06-20T08:43:16.088Z,79.79
2019-06-20T08:44:16.069Z,79.35
2019-06-20T08:45:16.094Z,79.04
2019-06-20T08:46:16.058Z,79.35
2019-06-20T08:47:16.059Z,79.64
2019-06-20T08:48:16.029Z,79.94
2019-06-20T08:49:16.947Z,80.69
2019-06-20T08:50:16.016Z,80.02
2019-06-20T08:51:16.011Z,79.92
2019-06-20T08:52:15.986Z,81.07
2019-06-20T08:53:15.976Z,81.47
2019-06-20T08:54:15.986Z,81.87
2019-06-20T08:55:15.978Z,82.28
2019-06-20T08:56:15.949Z,82.58
2019-06-20T08:57:15.954Z,82.18
2019-06-20T08:58:15.945Z,82.58
2019-06-20T08:59:24.382Z,82.98
2019-06-20T09:00:16.905Z,83.08
2019-06-20T09:01:15.894Z,82.44
2019-06-20T09:02:15.874Z,81.84
2019-06-20T09:03:15.883Z,82.38
2019-06-20T09:04:15.865Z,82.38
2019-06-20T09:05:15.853Z,82.98
2019-06-20T09:06:15.842Z,82.78
2019-06-20T09:07:15.834Z,83.39
2019-06-20T09:08:15.839Z,82.28
2019-06-20T09:09:15.807Z,81.47
2019-06-20T09:10:15.846Z,81.57
2019-06-20T09:11:15.793Z,81.27
2019-06-20T09:12:15.770Z,81.07
2019-06-20T09:13:15.779Z,80.63
2019-06-20T09:14:16.361Z,80.02
2019-06-20T09:15:15.781Z,79.28
2019-06-20T09:16:24.380Z,78.70
2019-06-20T09:17:16.718Z,79.71
2019-06-20T09:18:15.707Z,79.00
2019-06-20T09:19:15.749Z,78.03
2019-06-20T09:20:15.706Z,79.44
2019-06-20T09:21:15.689Z,79.04
2019-06-20T09:22:15.667Z,79.00
2019-06-20T09:23:15.688Z,76.12
2019-06-20T09:24:15.664Z,76.72
2019-06-20T09:25:15.666Z,75.92
2019-06-20T09:26:15.664Z,75.31
2019-06-20T09:27:15.614Z,75.71
2019-06-20T09:28:15.663Z,76.02
2019-06-20T09:29:15.594Z,75.62
2019-06-20T09:30:15.596Z,75.88
2019-06-20T09:31:15.590Z,75.58
2019-06-20T09:32:15.571Z,73.90
2019-06-20T09:33:15.568Z,74.54
2019-06-20T09:34:15.548Z,76.04
2019-06-20T09:35:15.543Z,76.18
2019-06-20T09:36:15.513Z,76.42
2019-06-20T09:37:15.542Z,76.12
2019-06-20T09:38:15.502Z,77.12
2019-06-20T09:39:15.505Z,76.89
2019-06-20T09:40:15.483Z,76.45
2019-06-20T09:41:15.461Z,75.01
2019-06-20T09:42:15.460Z,75.17
2019-06-20T09:43:27.260Z,74.33
2019-06-20T09:44:16.432Z,72.83
2019-06-20T09:45:15.420Z,72.33
2019-06-20T09:46:15.410Z,72.23
2019-06-20T09:47:15.400Z,72.43
2019-06-20T09:48:15.420Z,70.32
2019-06-20T09:49:15.379Z,70.69
2019-06-20T09:50:15.376Z,70.69
2019-06-20T09:51:15.359Z,70.36
2019-06-20T09:52:15.450Z,69.73
2019-06-20T09:53:15.339Z,69.49
2019-06-20T09:54:15.330Z,69.46
2019-06-20T09:55:15.319Z,68.99
2019-06-20T09:56:15.368Z,69.43
2019-06-20T09:57:15.318Z,70.89
2019-06-20T09:58:15.295Z,72.13
2019-06-20T09:59:27.252Z,72.27
2019-06-20T10:00:16.278Z,72.06
2019-06-20T10:01:15.257Z,72.90
2019-06-20T10:02:15.259Z,73.40
2019-06-20T10:03:15.247Z,73.24
2019-06-20T10:04:15.236Z,74.57
2019-06-20T10:05:15.205Z,75.27
2019-06-20T10:06:15.259Z,75.42
2019-06-20T10:07:15.271Z,75.65
2019-06-20T10:08:15.237Z,75.35
2019-06-20T10:09:15.164Z,75.05
2019-06-20T10:10:15.154Z,75.45
2019-06-20T10:11:15.158Z,75.55
2019-06-20T10:12:15.142Z,74.95
2019-06-20T10:13:15.146Z,75.85
2019-06-20T10:14:15.114Z,74.81
2019-06-20T10:15:15.102Z,74.51
2019-06-20T10:16:15.103Z,74.27
2019-06-20T10:17:15.091Z,73.44
2019-06-20T10:18:15.090Z,71.80
2019-06-20T10:19:15.062Z,72.43
2019-06-20T10:20:15.052Z,73.64
2019-06-20T10:21:15.050Z,73.37
2019-06-20T10:22:15.028Z,74.01
2019-06-20T10:23:15.040Z,75.65
2019-06-20T10:24:15.012Z,76.39
2019-06-20T10:25:14.998Z,77.39
2019-06-20T10:26:14.989Z,77.50
2019-06-20T10:27:14.977Z,78.10
2019-06-20T10:28:14.987Z,78.10
2019-06-20T10:30:23.891Z,74.98
2019-06-20T10:31:23.872Z,74.34
2019-06-20T10:32:23.871Z,73.03
2019-06-20T10:33:23.870Z,73.00
2019-06-20T10:34:23.861Z,72.70
2019-06-20T10:35:23.837Z,71.16
2019-06-20T10:36:23.819Z,68.92
2019-06-20T10:37:23.820Z,68.82
2019-06-20T10:38:23.798Z,69.53
2019-06-20T10:39:23.781Z,69.42
2019-06-20T10:40:23.789Z,69.53
2019-06-20T10:41:23.766Z,68.19
2019-06-20T10:42:23.786Z,68.79
2019-06-20T10:43:23.750Z,67.62
2019-06-20T10:44:23.727Z,67.42
2019-06-20T10:45:23.717Z,68.02
2019-06-20T10:46:23.706Z,67.12
2019-06-20T10:47:32.458Z,67.42
2019-06-20T10:48:24.715Z,67.96
2019-06-20T10:49:23.686Z,68.65
2019-06-20T10:50:23.688Z,69.59
2019-06-20T10:51:23.664Z,70.39
2019-06-20T10:52:23.674Z,70.09
2019-06-20T10:53:23.644Z,69.49
2019-06-20T10:54:23.624Z,69.09
2019-06-20T10:55:23.614Z,69.39
2019-06-20T10:56:23.623Z,69.02
2019-06-20T10:57:23.632Z,68.79
2019-06-20T10:58:23.603Z,68.89
2019-06-20T10:59:23.581Z,68.99
2019-06-20T11:00:30.829Z,68.79
2019-06-20T11:01:24.566Z,69.09
2019-06-20T11:02:23.573Z,69.89
2019-06-20T11:03:23.570Z,69.82
2019-06-20T11:04:23.532Z,69.69
2019-06-20T11:05:24.120Z,69.79
2019-06-20T11:06:23.542Z,69.32
2019-06-20T11:07:23.500Z,70.12
2019-06-20T11:08:23.480Z,70.63
2019-06-20T11:09:23.490Z,70.46
2019-06-20T11:10:23.459Z,70.63
2019-06-20T11:11:23.468Z,70.53
2019-06-20T11:12:23.455Z,70.66
2019-06-20T11:13:23.432Z,71.03
2019-06-20T11:14:23.420Z,70.53
2019-06-20T11:15:23.407Z,71.16
2019-06-20T11:16:23.399Z,71.86
2019-06-20T11:17:23.393Z,71.86
2019-06-20T11:18:23.388Z,71.86
2019-06-20T11:19:23.382Z,70.93
2019-06-20T11:20:23.368Z,70.43
2019-06-20T11:21:23.443Z,70.50
2019-06-20T11:22:23.341Z,70.09
2019-06-20T11:23:23.358Z,70.09
2019-06-20T11:24:23.316Z,70.19
2019-06-20T11:25:24.064Z,70.76
2019-06-20T11:26:23.313Z,70.06
2019-06-20T11:27:23.277Z,69.99
2019-06-20T11:28:23.786Z,70.32
2019-06-20T11:29:23.254Z,71.53
2019-06-20T11:30:23.244Z,71.23
2019-06-20T11:31:23.234Z,70.96
2019-06-20T11:32:23.225Z,71.23
2019-06-20T11:33:23.225Z,71.26
2019-06-20T11:34:23.306Z,71.66
2019-06-20T11:35:23.197Z,71.36
2019-06-20T11:36:23.185Z,71.77
2019-06-20T11:37:23.174Z,71.83
2019-06-20T11:38:23.173Z,71.53
2019-06-20T11:39:23.144Z,70.53
2019-06-20T11:40:23.141Z,70.23
2019-06-20T11:41:23.132Z,70.93
2019-06-20T11:42:23.111Z,71.23
2019-06-20T11:43:23.120Z,70.32
2019-06-20T11:44:23.098Z,70.19
2019-06-20T11:45:23.711Z,70.19
2019-06-20T11:46:23.080Z,70.09
2019-06-20T11:47:23.081Z,70.09
2019-06-20T11:48:24.189Z,69.49
2019-06-20T11:49:23.039Z,68.92
2019-06-20T11:50:23.039Z,69.02
2019-06-20T11:51:23.429Z,69.32
2019-06-20T11:52:23.032Z,69.22
2019-06-20T11:53:23.007Z,68.92
2019-06-20T11:54:22.987Z,68.62
2019-06-20T11:55:22.987Z,68.82
2019-06-20T11:56:22.969Z,69.32
2019-06-20T11:57:22.968Z,68.92
2019-06-20T11:58:23.616Z,68.69
2019-06-20T11:59:22.936Z,69.02
2019-06-20T12:00:22.926Z,68.02
2019-06-20T12:01:32.599Z,67.82
2019-06-20T12:02:23.911Z,67.52
2019-06-20T12:03:22.905Z,67.75
2019-06-20T12:04:22.916Z,67.55
2019-06-20T12:05:22.875Z,67.45
2019-06-20T12:06:22.864Z,68.05
2019-06-20T12:07:22.854Z,67.88
2019-06-20T12:08:24.185Z,67.58
2019-06-20T12:09:22.844Z,67.48
2019-06-20T12:10:22.823Z,68.12
2019-06-20T12:11:22.813Z,67.78
2019-06-20T12:12:22.807Z,68.49
2019-06-20T12:13:22.782Z,67.48
2019-06-20T12:14:22.840Z,67.14
2019-06-20T12:15:22.769Z,66.44
2019-06-20T12:16:22.750Z,66.95
2019-06-20T12:17:22.742Z,66.95
2019-06-20T12:18:22.736Z,66.64
2019-06-20T12:19:22.732Z,66.61
2019-06-20T12:20:22.721Z,66.11
2019-06-20T12:21:24.248Z,66.01
2019-06-20T12:22:22.690Z,66.01
2019-06-20T12:23:22.689Z,66.24
2019-06-20T12:24:22.673Z,65.61
2019-06-20T12:25:22.659Z,66.31
2019-06-20T12:26:22.651Z,66.82
2019-06-20T12:27:22.638Z,66.78
2019-06-20T12:28:22.639Z,64.98
2019-06-20T12:29:22.630Z,63.87
2019-06-20T12:30:22.611Z,63.67
2019-06-20T12:31:22.598Z,64.11
2019-06-20T12:32:22.606Z,65.01
2019-06-20T12:33:22.567Z,65.21
2019-06-20T12:34:22.626Z,65.21
2019-06-20T12:35:22.556Z,64.71
2019-06-20T12:36:22.563Z,65.01
2019-06-20T12:37:22.527Z,64.64
2019-06-20T12:38:22.585Z,65.04
2019-06-20T12:39:22.520Z,64.81
2019-06-20T12:40:22.505Z,65.01
2019-06-20T12:41:22.484Z,65.11
2019-06-20T12:42:22.501Z,64.01
2019-06-20T12:43:22.483Z,64.01
2019-06-20T12:44:22.464Z,64.54
2019-06-20T12:45:22.454Z,64.43
2019-06-20T12:46:22.432Z,64.27
2019-06-20T12:47:22.460Z,64.47
2019-06-20T12:48:22.412Z,65.17
2019-06-20T12:49:24.018Z,64.27
2019-06-20T12:50:22.403Z,63.84
2019-06-20T12:51:22.379Z,63.84
2019-06-20T12:52:22.371Z,64.21
2019-06-20T12:53:22.361Z,63.60
2019-06-20T12:54:22.351Z,63.20